Aérodrome :
LOGIN :

S'inscrire | Disclaimer

   EN    FR    IT 

 










Légende :    VFR   VFR Marginal   IFR   IFR Intensif   IFR Très Intensif
Visi : 
Plafond : 
>= 8 km
>= 3000ft
5 à 8 km
1000 à 3000 ft
1500m à 5 km
500 à 1000 ft
800 à 1500m
200 à 500 ft
< 800m
< 200 ft
Symboles :   Orages  Brouillard  Fortes neiges  Fortes précipitations  Vent > 20 kt
SIGMETs :   Divers  Orages  Givrage  Turbulence  Onde Orograph.  Cendres Volcan.







- Altitude de l'aérodrome : 26 ft


ETNT - Wittmundhaven AB

DERNIER METAR :
  • 181820Z 25003KT 6000 SCT022 BKN040 02/02 Q1028 WHT

METARs EXPIRÉS :
  • 181720Z 22002KT 6000 SCT007 BKN014 02/02 Q1027 GRN
  • 181620Z 29003KT 4000 BR SCT007 BKN014 03/01 Q1027 GRN FCST CANCEL
  • 181532Z 00000KT 7000 BKN015 03/01 Q1026 WHT GRN TEMPO WHT

TAF TAF ETNT
Valide du 18 à 18h jusqu'au 19 à 03h UTC


181700Z 1818/1903 VRB03KT 6000 NSW SCT005 BKN015
TEMPO 1818/1903 VRB02KT 2000 BR BKN003
PROB30 1818/1903 VRB01KT 0500 FG VV001 BY ETGL
Pas de NOTAMs connus pour ce terrain.



MET'MAP, la Météo Aéronautique d'un coup d'oeil ! - Copyright ORBIFLY Décembre 2007 - Disclaimer

ORBIFLY MET'MAP TEAM :

Programmation & Développement : Alexandra Zaïnal
Conception & Développement : Baudouin d'Aumeries
Co-Programmation & Développement : Marc-Olivier Méhu
Soutien technique & logistique : Manuel Goepfert

Contact : metmap@orbifly.com




SOURCES & CREDITS :

   NOAA